Time;durP1;ratioP1;P1;durP2;ratioP2;P2;SDS_P1;SDS_P2;PMS_P1;PMS_P2;Temp;Humidity;BMP_temperature;BMP_pressure;BME280_temperature;BME280_humidity;BME280_pressure;Samples;Min_cycle;Max_cycle;Signal;HPM_P1;HPM_P2
2023/10/15 00:00:13;;;;;;;11.20;5.75;;;;;;;17.29;57.03;99586.09;5119666;27;20364;-63
2023/10/15 00:02:41;;;;;;;9.93;5.88;;;;;;;17.20;55.29;99590.84;5113011;27;20287;-63
2023/10/15 00:05:12;;;;;;;9.38;6.70;;;;;;;16.97;56.20;99567.22;5145635;27;20323;-62
2023/10/15 00:07:38;;;;;;;10.98;6.30;;;;;;;17.09;54.03;99581.59;5123796;27;20072;-63
2023/10/15 00:10:14;;;;;;;12.40;6.18;;;;;;;16.99;55.14;99569.69;5124129;27;20044;-63
2023/10/15 00:12:41;;;;;;;9.95;6.28;;;;;;;16.80;55.24;99571.34;5124352;27;20035;-63
2023/10/15 00:15:11;;;;;;;10.80;6.85;;;;;;;16.69;59.66;99572.78;5123926;27;20341;-63
2023/10/15 00:17:37;;;;;;;11.93;6.75;;;;;;;16.40;61.56;99562.44;5123670;27;20038;-63
2023/10/15 00:20:05;;;;;;;9.68;6.60;;;;;;;16.13;63.91;99565.06;5123693;27;20036;-62
2023/10/15 00:22:30;;;;;;;12.05;6.93;;;;;;;16.02;64.13;99552.28;5122519;27;20036;-62
2023/10/15 00:24:55;;;;;;;10.65;6.18;;;;;;;16.03;64.07;99539.78;5122690;27;20084;-62
2023/10/15 00:27:21;;;;;;;11.10;6.50;;;;;;;16.15;60.85;99541.66;5123685;27;20042;-62
2023/10/15 00:29:48;;;;;;;11.75;6.53;;;;;;;16.27;60.25;99550.69;5124351;27;20062;-62
2023/10/15 00:32:13;;;;;;;9.95;6.72;;;;;;;16.31;60.98;99561.81;5123859;27;20070;-62
2023/10/15 00:34:39;;;;;;;9.77;5.93;;;;;;;16.36;62.25;99545.97;5124292;27;20337;-63
2023/10/15 00:37:05;;;;;;;9.45;6.30;;;;;;;16.41;61.19;99548.88;5123754;27;20027;-63
2023/10/15 00:39:30;;;;;;;9.90;6.68;;;;;;;16.41;60.61;99551.53;5124207;27;20066;-63
2023/10/15 00:41:56;;;;;;;15.43;6.95;;;;;;;16.45;61.83;99549.28;5122433;27;20043;-62
2023/10/15 00:44:22;;;;;;;8.40;6.20;;;;;;;16.43;60.11;99546.00;5123522;27;20038;-62
2023/10/15 00:46:54;;;;;;;9.25;5.78;;;;;;;16.46;61.87;99541.06;5123741;27;20043;-63
2023/10/15 00:49:24;;;;;;;9.25;5.90;;;;;;;16.51;61.66;99545.78;5124248;27;20027;-63
2023/10/15 00:51:50;;;;;;;10.60;6.10;;;;;;;16.53;62.09;99541.06;5123814;27;20292;-62
2023/10/15 00:54:16;;;;;;;8.05;5.65;;;;;;;16.51;60.87;99538.59;5131112;27;20039;-63
2023/10/15 00:56:47;;;;;;;12.27;5.65;;;;;;;16.43;57.89;99533.44;5132810;27;20030;-62
2023/10/15 00:59:19;;;;;;;8.02;5.63;;;;;;;16.40;58.42;99538.38;5122524;27;20035;-62
2023/10/15 01:04:26;;;;;;;11.57;6.80;;;;;;;16.44;61.83;99535.09;5122154;27;20225;-62
2023/10/15 01:06:53;;;;;;;12.27;6.00;;;;;;;16.44;61.44;99531.59;5123351;27;20091;-62
2023/10/15 01:09:27;;;;;;;9.95;6.40;;;;;;;16.39;58.61;99528.72;5123523;27;20057;-62
2023/10/15 01:11:56;;;;;;;9.73;6.18;;;;;;;16.34;58.72;99532.00;5127476;27;20089;-62
2023/10/15 01:14:27;;;;;;;9.95;6.03;;;;;;;16.25;60.64;99531.38;5127363;27;20050;-62
2023/10/15 01:16:53;;;;;;;11.77;6.43;;;;;;;16.14;59.71;99523.16;5123044;27;20456;-63
2023/10/15 01:19:20;;;;;;;9.02;6.57;;;;;;;16.09;61.18;99523.75;5123439;27;20250;-62
2023/10/15 01:21:57;;;;;;;11.50;6.18;;;;;;;16.09;60.90;99520.25;5122298;27;20330;-62
2023/10/15 01:24:33;;;;;;;11.85;6.00;;;;;;;16.09;61.15;99520.25;5124823;27;20036;-63
2023/10/15 01:27:11;;;;;;;11.27;6.82;;;;;;;15.85;60.12;99524.31;5123182;27;20035;-62
2023/10/15 01:29:44;;;;;;;9.35;6.20;;;;;;;15.85;62.69;99527.81;5123407;27;20092;-63
2023/10/15 01:32:21;;;;;;;10.70;6.43;;;;;;;15.90;62.94;99533.38;5122421;27;20371;-62
2023/10/15 01:34:49;;;;;;;14.55;7.28;;;;;;;15.79;62.80;99531.28;5122627;27;20035;-62
2023/10/15 01:37:24;;;;;;;15.20;9.35;;;;;;;15.56;64.75;99531.56;5122197;27;20339;-62
2023/10/15 01:40:00;;;;;;;13.88;7.95;;;;;;;15.51;65.45;99523.31;5122541;27;20329;-62
2023/10/15 01:45:09;;;;;;;15.52;7.80;;;;;;;15.84;64.55;99528.00;5122677;27;20043;-63
2023/10/15 01:47:36;;;;;;;13.15;8.07;;;;;;;15.70;65.31;99535.16;5121888;27;20080;-62
2023/10/15 01:50:09;;;;;;;14.32;7.85;;;;;;;15.54;63.99;99530.94;5121192;27;20039;-63
2023/10/15 01:52:42;;;;;;;11.82;7.55;;;;;;;15.71;62.64;99530.66;5120979;27;20054;-62
2023/10/15 01:55:07;;;;;;;12.02;7.45;;;;;;;15.76;63.19;99526.34;5119726;27;20329;-62
2023/10/15 01:57:36;;;;;;;12.05;7.20;;;;;;;15.77;63.74;99530.66;5122024;27;20043;-63
2023/10/15 02:00:12;;;;;;;9.90;7.47;;;;;;;15.83;63.62;99529.84;5129583;27;20072;-62
2023/10/15 02:02:38;;;;;;;10.57;6.68;;;;;;;15.84;63.94;99520.81;5121754;27;20374;-62
2023/10/15 02:05:03;;;;;;;9.13;6.20;;;;;;;15.91;64.64;99535.00;5131071;27;20035;-63
2023/10/15 02:07:31;;;;;;;11.63;6.28;;;;;;;15.74;65.18;99536.41;5121604;27;20027;-63
2023/10/15 02:09:56;;;;;;;9.63;6.57;;;;;;;15.53;65.86;99534.63;5121615;27;20026;-63
2023/10/15 02:12:22;;;;;;;9.15;6.35;;;;;;;15.24;67.46;99540.22;5121461;27;20061;-63
2023/10/15 02:14:47;;;;;;;10.98;6.75;;;;;;;15.07;68.38;99544.22;5122036;27;20035;-63
2023/10/15 02:17:18;;;;;;;11.80;6.97;;;;;;;14.87;69.58;99544.94;5120938;27;20035;-63
2023/10/15 02:19:44;;;;;;;11.40;6.30;;;;;;;14.95;69.30;99541.28;5121116;27;20031;-63
2023/10/15 02:22:14;;;;;;;12.88;7.05;;;;;;;14.95;69.11;99535.94;5121892;27;20870;-62
2023/10/15 02:24:46;;;;;;;11.43;7.65;;;;;;;15.14;68.16;99531.75;5121824;28;20693;-63
2023/10/15 02:27:23;;;;;;;13.30;6.55;;;;;;;15.15;68.31;99528.06;5121728;28;20039;-62
2023/10/15 02:29:49;;;;;;;14.80;7.78;;;;;;;15.26;67.86;99525.69;5121604;28;20249;-63
2023/10/15 02:32:28;;;;;;;16.60;8.27;;;;;;;15.34;67.17;99525.50;5121825;28;20416;-63
2023/10/15 02:34:57;;;;;;;18.17;7.90;;;;;;;15.46;66.75;99524.94;5120937;28;20071;-63
2023/10/15 02:37:27;;;;;;;14.57;8.55;;;;;;;15.48;66.53;99522.91;5120943;28;20027;-63
2023/10/15 02:39:59;;;;;;;11.75;7.70;;;;;;;15.51;64.47;99520.66;5120998;28;20370;-63
2023/10/15 02:42:30;;;;;;;12.13;7.38;;;;;;;15.41;64.56;99522.88;5129763;28;20057;-62
2023/10/15 02:44:58;;;;;;;12.35;8.38;;;;;;;15.34;65.66;99512.16;5120284;28;20040;-63
2023/10/15 02:47:41;;;;;;;15.05;8.38;;;;;;;15.33;64.76;99499.84;5135303;27;20049;-62
2023/10/15 02:50:07;;;;;;;12.80;7.65;;;;;;;15.37;63.55;99512.78;5126251;27;20974;-63
2023/10/15 02:52:35;;;;;;;15.27;7.20;;;;;;;15.37;62.25;99510.13;5125167;27;20035;-63
2023/10/15 02:55:10;;;;;;;11.05;7.35;;;;;;;15.32;62.32;99500.88;5125400;27;20059;-63
2023/10/15 02:57:38;;;;;;;11.90;7.63;;;;;;;15.11;66.26;99506.31;5126658;27;20048;-62
2023/10/15 03:00:28;;;;;;;14.55;8.93;;;;;;;15.14;66.76;99500.59;5125827;27;20023;-63
2023/10/15 03:02:56;;;;;;;12.70;7.95;;;;;;;15.31;66.19;99501.06;5127704;27;20058;-63
2023/10/15 03:05:38;;;;;;;14.18;8.02;;;;;;;15.22;66.58;99502.25;5134379;27;20039;-63
2023/10/15 03:08:04;;;;;;;16.38;9.07;;;;;;;15.24;66.93;99498.38;5128842;27;20088;-63
2023/10/15 03:10:30;;;;;;;16.42;9.55;;;;;;;15.14;67.51;99502.44;5125167;27;20041;-63
2023/10/15 03:12:59;;;;;;;12.77;8.68;;;;;;;15.23;66.85;99502.06;5125696;27;20036;-63
2023/10/15 03:15:25;;;;;;;15.18;8.55;;;;;;;15.37;66.46;99502.13;5125765;27;20038;-64
2023/10/15 03:17:50;;;;;;;12.50;8.93;;;;;;;15.39;64.39;99500.06;5133297;27;20046;-63
2023/10/15 03:22:45;;;;;;;12.05;7.90;;;;;;;15.37;63.07;99494.13;5125150;27;20038;-63
2023/10/15 03:25:14;;;;;;;14.82;8.65;;;;;;;15.10;63.97;99488.66;5124482;27;20214;-63
2023/10/15 03:27:40;;;;;;;13.68;9.20;;;;;;;15.22;65.19;99494.25;5126047;27;20410;-62
2023/10/15 03:30:09;;;;;;;14.50;8.30;;;;;;;15.22;65.31;99492.41;5125297;27;20054;-62
2023/10/15 03:32:40;;;;;;;13.15;9.10;;;;;;;15.16;65.77;99493.22;5134583;27;20051;-63
2023/10/15 03:35:16;;;;;;;12.75;8.93;;;;;;;15.19;66.04;99482.13;5124306;27;20031;-63
2023/10/15 03:37:45;;;;;;;12.18;8.10;;;;;;;15.07;62.47;99483.72;5133830;27;20203;-62
2023/10/15 03:40:30;;;;;;;11.98;7.47;;;;;;;14.97;62.54;99481.41;5124964;27;20031;-62
2023/10/15 03:43:15;;;;;;;12.80;8.65;;;;;;;15.00;63.44;99480.19;5123769;27;20036;-62
2023/10/15 03:45:53;;;;;;;13.43;9.00;;;;;;;14.91;63.61;99479.53;5124645;27;20039;-62
2023/10/15 03:48:28;;;;;;;12.07;7.72;;;;;;;14.77;63.91;99480.47;5124805;27;20061;-63
2023/10/15 03:50:54;;;;;;;12.90;8.27;;;;;;;14.54;65.25;99482.53;5123970;27;20035;-63
2023/10/15 03:53:35;;;;;;;13.65;9.38;;;;;;;14.61;64.97;99484.25;5124492;27;20043;-63
2023/10/15 03:56:03;;;;;;;14.93;8.55;;;;;;;14.69;64.00;99480.63;5124412;27;20032;-63
2023/10/15 03:58:31;;;;;;;12.60;7.93;;;;;;;14.68;61.85;99482.47;5124133;27;20066;-62
2023/10/15 04:01:17;;;;;;;13.50;8.48;;;;;;;14.66;62.72;99481.84;5124499;27;20034;-62
2023/10/15 04:03:49;;;;;;;16.95;8.30;;;;;;;14.62;62.59;99479.75;5122871;27;20035;-63
2023/10/15 04:06:18;;;;;;;13.43;7.95;;;;;;;14.57;63.74;99477.69;5123401;27;20043;-63
2023/10/15 04:09:08;;;;;;;15.82;8.68;;;;;;;14.37;65.48;99479.31;5123494;27;20322;-62
2023/10/15 04:11:42;;;;;;;14.95;9.02;;;;;;;14.35;67.26;99474.16;5125132;27;20050;-62
2023/10/15 04:14:18;;;;;;;12.02;8.90;;;;;;;14.43;67.89;99465.25;5128674;27;20043;-62
2023/10/15 04:16:44;;;;;;;15.15;8.68;;;;;;;14.52;67.64;99473.91;5123915;27;20237;-63
2023/10/15 04:19:10;;;;;;;14.18;9.25;;;;;;;14.57;67.50;99483.00;5122994;27;20133;-63
2023/10/15 04:21:39;;;;;;;14.30;8.82;;;;;;;14.62;67.07;99469.94;5123976;27;20039;-63
2023/10/15 04:24:08;;;;;;;15.60;9.30;;;;;;;14.66;66.94;99470.34;5134003;27;20099;-63
2023/10/15 04:26:40;;;;;;;15.77;8.82;;;;;;;14.58;66.56;99465.19;5124521;27;20035;-64
2023/10/15 04:29:18;;;;;;;12.77;9.10;;;;;;;14.46;67.19;99467.53;5123053;27;20059;-63
2023/10/15 04:31:56;;;;;;;16.48;9.50;;;;;;;14.39;66.78;99461.28;5125768;27;20027;-63
2023/10/15 04:34:25;;;;;;;14.52;8.25;;;;;;;14.34;66.76;99463.72;5128622;27;20035;-63
2023/10/15 04:36:51;;;;;;;14.25;9.00;;;;;;;14.38;66.09;99462.31;5123334;27;20028;-63
2023/10/15 04:39:21;;;;;;;14.38;8.32;;;;;;;14.33;66.28;99446.09;5123170;27;20206;-63
2023/10/15 04:41:49;;;;;;;17.80;8.35;;;;;;;14.41;65.85;99463.75;5123447;27;20309;-63
2023/10/15 04:44:24;;;;;;;12.20;8.45;;;;;;;14.40;65.92;99465.59;5131856;27;20395;-63
2023/10/15 04:46:53;;;;;;;14.15;8.57;;;;;;;14.42;65.95;99465.41;5123021;27;20080;-63
2023/10/15 04:49:19;;;;;;;13.20;8.43;;;;;;;14.40;66.27;99460.28;5123037;27;20081;-63
2023/10/15 04:51:45;;;;;;;13.70;8.27;;;;;;;14.38;66.42;99467.63;5123744;27;20042;-63
2023/10/15 04:54:10;;;;;;;11.80;8.32;;;;;;;14.36;66.52;99454.50;5122972;27;20286;-63
2023/10/15 04:56:36;;;;;;;13.85;8.85;;;;;;;14.35;66.92;99455.53;5123748;27;20049;-63
2023/10/15 04:59:02;;;;;;;16.02;11.55;;;;;;;14.36;66.90;99459.84;5123183;27;20338;-64
2023/10/15 05:01:28;;;;;;;15.27;8.32;;;;;;;14.22;67.06;99446.59;5123124;27;20019;-63
2023/10/15 05:03:53;;;;;;;13.15;8.65;;;;;;;14.10;68.27;99451.63;5122624;27;20070;-64
2023/10/15 05:06:21;;;;;;;14.50;8.55;;;;;;;14.18;67.81;99451.50;5123190;27;20034;-63
2023/10/15 05:08:47;;;;;;;15.20;10.10;;;;;;;14.31;67.83;99456.94;5127235;27;20034;-63
2023/10/15 05:11:13;;;;;;;16.85;8.70;;;;;;;14.33;67.84;99454.06;5125940;27;20034;-63
2023/10/15 05:13:42;;;;;;;12.85;8.98;;;;;;;14.42;67.96;99447.63;5122634;27;20035;-63
2023/10/15 05:16:07;;;;;;;11.18;8.43;;;;;;;14.36;68.17;99451.84;5123577;27;20057;-64
2023/10/15 05:18:33;;;;;;;19.23;10.45;;;;;;;14.39;68.45;99461.28;5123610;27;20210;-63
2023/10/15 05:21:00;;;;;;;16.60;10.20;;;;;;;14.42;68.26;99447.63;5123081;27;20349;-63
2023/10/15 05:23:26;;;;;;;12.88;10.35;;;;;;;14.53;68.12;99456.91;5133044;27;20035;-63
2023/10/15 05:25:54;;;;;;;15.10;9.55;;;;;;;14.52;68.31;99456.09;5122922;27;20035;-63
2023/10/15 05:28:23;;;;;;;13.73;8.88;;;;;;;14.69;68.00;99460.13;5124154;27;20388;-63
2023/10/15 05:30:49;;;;;;;11.43;8.75;;;;;;;14.70;68.44;99460.97;5129410;27;20066;-63
2023/10/15 05:33:16;;;;;;;18.73;9.15;;;;;;;14.67;68.75;99454.19;5121673;27;20038;-64
2023/10/15 05:35:47;;;;;;;14.85;9.85;;;;;;;14.67;69.07;99453.34;5122661;27;20098;-64
2023/10/15 05:38:13;;;;;;;17.65;8.68;;;;;;;14.72;69.31;99456.25;5126633;27;20035;-63
2023/10/15 05:40:38;;;;;;;17.00;8.52;;;;;;;14.81;68.87;99449.75;5127278;27;20104;-64
2023/10/15 05:43:07;;;;;;;15.63;10.10;;;;;;;14.81;69.40;99444.41;5121976;27;20047;-64
2023/10/15 05:45:32;;;;;;;15.57;8.27;;;;;;;14.96;69.04;99444.28;5121699;27;20043;-64
2023/10/15 05:47:57;;;;;;;23.90;9.57;;;;;;;15.05;69.29;99434.28;5121906;27;20054;-63
2023/10/15 05:50:23;;;;;;;18.55;11.23;;;;;;;15.12;69.19;99443.13;5121807;27;20031;-64
2023/10/15 05:52:49;;;;;;;18.60;11.35;;;;;;;15.17;69.16;99438.03;5122674;27;20043;-63
2023/10/15 05:55:16;;;;;;;18.15;10.10;;;;;;;15.38;68.67;99437.91;5121601;27;20044;-64
2023/10/15 05:57:43;;;;;;;19.58;10.27;;;;;;;15.57;68.49;99444.31;5122444;27;20031;-63
2023/10/15 06:00:18;;;;;;;19.50;8.02;;;;;;;15.68;68.15;99457.13;5122215;27;20051;-64
2023/10/15 06:02:50;;;;;;;23.88;9.95;;;;;;;15.91;67.48;99454.09;5121560;27;20072;-63
2023/10/15 06:05:16;;;;;;;23.48;11.57;;;;;;;15.94;67.72;99453.69;5123308;27;20368;-62
2023/10/15 06:07:44;;;;;;;17.85;9.13;;;;;;;16.16;67.99;99454.31;5121071;27;20343;-62
2023/10/15 06:10:14;;;;;;;31.55;17.02;;;;;;;16.29;67.24;99440.97;5121717;27;20199;-61
2023/10/15 06:12:40;;;;;;;51.90;34.47;;;;;;;16.35;66.71;99439.31;5121584;27;20027;-63
2023/10/15 06:15:06;;;;;;;24.40;17.50;;;;;;;16.43;66.49;99439.09;5120506;27;20046;-63
2023/10/15 06:17:35;;;;;;;17.10;10.85;;;;;;;16.49;66.89;99444.44;5120837;27;20035;-62
2023/10/15 06:20:13;;;;;;;14.85;8.43;;;;;;;16.34;67.26;99437.66;5130966;27;20034;-62
2023/10/15 06:22:43;;;;;;;12.45;7.63;;;;;;;16.61;67.22;99448.13;5121156;27;20031;-62
2023/10/15 06:25:11;;;;;;;14.73;7.93;;;;;;;16.73;66.81;99450.22;5120604;28;20031;-62
2023/10/15 06:27:38;;;;;;;12.80;8.02;;;;;;;16.92;66.22;99442.16;5121775;28;20091;-64
2023/10/15 06:30:16;;;;;;;20.13;11.98;;;;;;;16.94;66.13;99441.94;5122329;28;20077;-63
2023/10/15 06:32:49;;;;;;;17.20;8.32;;;;;;;17.12;65.96;99431.38;5121232;28;20027;-64
2023/10/15 06:35:18;;;;;;;17.75;10.48;;;;;;;17.13;66.32;99437.53;5128069;28;20061;-63
2023/10/15 06:37:50;;;;;;;17.65;11.98;;;;;;;17.12;67.03;99428.69;5124098;28;20032;-63
2023/10/15 06:40:16;;;;;;;15.43;11.18;;;;;;;17.32;66.65;99433.16;5129880;28;20455;-64
2023/10/15 06:42:43;;;;;;;13.75;8.77;;;;;;;17.58;66.56;99435.69;5126055;28;20606;-64
2023/10/15 06:45:09;;;;;;;14.82;8.48;;;;;;;17.81;65.62;99436.00;5119984;28;20034;-64
2023/10/15 06:47:38;;;;;;;21.27;15.82;;;;;;;18.01;64.64;99429.69;5125354;28;20039;-64
2023/10/15 06:50:06;;;;;;;14.52;10.45;;;;;;;18.21;64.60;99424.16;5132468;27;20039;-63
2023/10/15 06:52:39;;;;;;;33.40;10.38;;;;;;;18.36;64.50;99425.47;5138175;27;20053;-65
2023/10/15 06:55:10;;;;;;;15.48;11.50;;;;;;;18.54;64.52;99427.38;5137468;28;20035;-63
2023/10/15 06:57:40;;;;;;;24.88;22.23;;;;;;;18.77;64.35;99418.75;5137543;27;20173;-64
2023/10/15 07:00:21;;;;;;;20.73;14.02;;;;;;;18.85;64.67;99412.25;5137410;28;20043;-64
2023/10/15 07:02:51;;;;;;;16.67;9.75;;;;;;;18.98;64.56;99422.84;5137046;28;20039;-64
2023/10/15 07:05:17;;;;;;;19.35;10.65;;;;;;;19.03;63.77;99426.47;5137158;27;20352;-63
2023/10/15 07:07:45;;;;;;;17.30;9.18;;;;;;;19.10;63.85;99411.13;5136937;28;20046;-64
2023/10/15 07:10:12;;;;;;;16.92;9.90;;;;;;;19.10;63.51;99408.44;5137218;27;20058;-63
2023/10/15 07:12:38;;;;;;;11.48;6.38;;;;;;;19.34;64.57;99409.38;5137774;28;20024;-63
2023/10/15 07:15:05;;;;;;;12.75;9.75;;;;;;;19.35;64.74;99400.28;5138660;27;20019;-64
2023/10/15 07:17:31;;;;;;;17.88;9.77;;;;;;;19.38;65.05;99402.50;5135259;28;20027;-63
2023/10/15 07:19:56;;;;;;;11.73;8.00;;;;;;;19.33;65.03;99399.69;5137976;27;20038;-64
2023/10/15 07:22:21;;;;;;;14.55;8.27;;;;;;;19.28;65.57;99393.34;5138049;28;20046;-63
2023/10/15 07:24:47;;;;;;;13.73;8.57;;;;;;;19.41;64.96;99395.84;5138127;28;20035;-63
2023/10/15 07:27:12;;;;;;;11.55;7.25;;;;;;;19.59;65.30;99392.34;5138157;28;20041;-64
2023/10/15 07:29:39;;;;;;;14.18;8.10;;;;;;;19.70;64.96;99386.16;5138191;27;20048;-63
2023/10/15 07:32:07;;;;;;;12.95;6.55;;;;;;;19.72;65.47;99390.25;5139657;27;20361;-63
2023/10/15 07:34:33;;;;;;;18.77;7.07;;;;;;;19.76;64.89;99386.06;5140840;27;20345;-64
2023/10/15 07:36:58;;;;;;;12.93;6.18;;;;;;;19.87;64.71;99387.16;5131729;27;20075;-63
2023/10/15 07:39:25;;;;;;;13.02;6.43;;;;;;;19.98;64.46;99377.50;5135316;27;20469;-63
2023/10/15 07:41:51;;;;;;;11.40;6.43;;;;;;;20.03;64.00;99365.00;5141792;27;20079;-64
2023/10/15 07:44:17;;;;;;;13.82;6.57;;;;;;;20.12;63.15;99372.72;5142196;27;20089;-64
2023/10/15 07:46:43;;;;;;;10.77;6.63;;;;;;;20.17;63.54;99370.97;5141727;27;20388;-64
2023/10/15 07:49:12;;;;;;;9.15;6.60;;;;;;;20.31;62.98;99371.53;5141462;27;20042;-63
2023/10/15 07:51:38;;;;;;;10.25;6.93;;;;;;;20.36;62.56;99368.97;5142330;27;20039;-63
2023/10/15 07:54:03;;;;;;;9.93;6.60;;;;;;;20.50;62.18;99365.00;5141001;27;20446;-62
2023/10/15 07:56:31;;;;;;;11.65;6.78;;;;;;;20.51;61.51;99361.28;5141619;27;20050;-63
2023/10/15 07:58:57;;;;;;;10.82;6.93;;;;;;;20.54;61.21;99358.13;5141368;27;20035;-63
2023/10/15 08:01:25;;;;;;;11.27;6.57;;;;;;;20.60;60.80;99365.25;5140121;27;20064;-62
2023/10/15 08:03:59;;;;;;;10.45;5.57;;;;;;;20.69;59.87;99357.63;5139801;27;20043;-62
2023/10/15 08:06:25;;;;;;;11.95;5.55;;;;;;;20.73;58.86;99354.22;5080353;27;20043;-61
2023/10/15 08:08:51;;;;;;;14.57;7.60;;;;;;;20.75;58.21;99345.91;5138480;27;20131;-64
2023/10/15 08:11:17;;;;;;;11.82;5.57;;;;;;;20.88;57.27;99351.06;5140668;27;20423;-63
2023/10/15 08:13:42;;;;;;;35.47;9.00;;;;;;;20.90;56.78;99348.13;5139570;27;20240;-63
2023/10/15 08:16:08;;;;;;;12.48;5.90;;;;;;;20.85;56.50;99345.31;5141417;27;20045;-65
2023/10/15 08:18:34;;;;;;;11.13;5.85;;;;;;;20.81;56.52;99336.09;5122691;27;20031;-62
2023/10/15 08:20:59;;;;;;;11.50;5.75;;;;;;;20.77;56.68;99340.28;5141462;27;20057;-62
2023/10/15 08:23:25;;;;;;;11.15;6.10;;;;;;;20.79;56.77;99332.78;5140164;27;20220;-62
2023/10/15 08:25:50;;;;;;;8.27;5.60;;;;;;;20.60;56.88;99330.28;5141231;27;20091;-62
2023/10/15 08:28:16;;;;;;;9.55;5.35;;;;;;;20.46;57.34;99323.50;5140264;27;20039;-62
2023/10/15 08:30:42;;;;;;;8.27;5.47;;;;;;;20.57;57.52;99328.06;5141118;27;20255;-64
2023/10/15 08:33:13;;;;;;;11.77;5.70;;;;;;;20.71;58.52;99320.53;5140504;27;20042;-61
2023/10/15 08:35:42;;;;;;;10.85;5.50;;;;;;;20.84;57.17;99317.59;5125980;27;20031;-61
2023/10/15 08:38:07;;;;;;;7.22;4.90;;;;;;;20.91;56.58;99318.28;5124223;27;20072;-62
2023/10/15 08:40:39;;;;;;;10.18;5.45;;;;;;;21.08;56.58;99312.94;5122897;27;20028;-61
2023/10/15 08:43:11;;;;;;;9.88;5.22;;;;;;;21.20;55.78;99312.91;5123098;27;20038;-62
2023/10/15 08:45:37;;;;;;;10.55;5.03;;;;;;;21.33;55.74;99309.94;5124157;27;20046;-62
2023/10/15 08:48:05;;;;;;;9.82;5.38;;;;;;;21.31;56.14;99303.97;5131261;27;20077;-62
2023/10/15 08:50:36;;;;;;;9.35;5.50;;;;;;;21.32;56.46;99301.03;5123914;27;20031;-63
2023/10/15 08:53:04;;;;;;;10.27;5.03;;;;;;;21.37;55.51;99303.00;5123511;27;20337;-64
2023/10/15 08:55:33;;;;;;;11.70;5.32;;;;;;;21.47;54.92;99291.59;5123355;27;20058;-63
2023/10/15 08:58:00;;;;;;;11.32;6.30;;;;;;;21.54;55.72;99292.25;5124248;27;20038;-63
2023/10/15 09:00:26;;;;;;;11.20;5.70;;;;;;;21.51;54.23;99290.84;5137437;27;20035;-63
2023/10/15 09:03:00;;;;;;;8.50;6.25;;;;;;;21.62;55.16;99295.34;5140398;27;20392;-63
2023/10/15 09:05:26;;;;;;;7.82;5.63;;;;;;;21.60;53.21;99283.19;5139155;27;20347;-62
2023/10/15 09:07:54;;;;;;;9.75;5.93;;;;;;;21.57;53.78;99283.66;5139506;27;20319;-63
2023/10/15 09:10:20;;;;;;;11.02;7.13;;;;;;;21.30;55.35;99272.72;5139445;27;20094;-63
2023/10/15 09:12:47;;;;;;;10.98;6.90;;;;;;;21.19;55.25;99273.56;5139193;27;20072;-64
2023/10/15 09:15:17;;;;;;;9.60;6.07;;;;;;;21.22;55.49;99265.00;5139273;27;20039;-63
2023/10/15 09:17:55;;;;;;;7.95;6.45;;;;;;;21.26;55.76;99263.50;5139921;27;20038;-63
2023/10/15 09:20:32;;;;;;;10.10;6.13;;;;;;;21.25;55.13;99253.78;5138888;27;20371;-63
2023/10/15 09:22:59;;;;;;;9.35;6.25;;;;;;;21.27;55.54;99254.34;5139848;27;20043;-63
2023/10/15 09:25:29;;;;;;;8.38;5.47;;;;;;;21.24;54.85;99255.66;5139646;27;20034;-64
2023/10/15 09:27:56;;;;;;;8.45;5.13;;;;;;;21.33;54.42;99248.00;5139255;27;20047;-63
2023/10/15 09:30:22;;;;;;;9.70;5.95;;;;;;;21.44;55.22;99247.09;5130645;27;20050;-63
2023/10/15 09:32:48;;;;;;;17.73;5.25;;;;;;;21.57;55.16;99241.38;5130620;27;20102;-63
2023/10/15 09:35:14;;;;;;;10.75;5.28;;;;;;;21.69;54.51;99244.00;5138208;27;20048;-62
2023/10/15 09:37:40;;;;;;;12.23;5.78;;;;;;;21.78;53.88;99241.69;5139267;27;20062;-63
2023/10/15 09:40:09;;;;;;;6.78;5.57;;;;;;;21.77;53.54;99235.47;5139324;27;20042;-63
2023/10/15 09:42:38;;;;;;;10.85;5.53;;;;;;;21.76;53.20;99236.56;5139475;27;20027;-63
2023/10/15 09:45:05;;;;;;;9.98;5.72;;;;;;;21.72;53.02;99223.81;5137903;27;20043;-63
2023/10/15 09:47:33;;;;;;;10.73;6.63;;;;;;;21.72;52.60;99221.94;5137805;27;20058;-63
2023/10/15 09:50:01;;;;;;;10.07;5.93;;;;;;;21.79;52.30;99221.75;5136426;27;20042;-63
2023/10/15 09:52:29;;;;;;;8.95;5.30;;;;;;;21.83;53.10;99221.03;5137374;27;20035;-63
2023/10/15 09:54:55;;;;;;;7.18;5.50;;;;;;;21.86;52.81;99206.25;5137012;27;20222;-62
2023/10/15 09:57:25;;;;;;;12.32;5.65;;;;;;;21.95;52.03;99208.28;5137331;27;20693;-63
2023/10/15 09:59:53;;;;;;;8.82;5.45;;;;;;;21.94;51.50;99200.44;5138532;27;20026;-63
2023/10/15 10:02:35;;;;;;;8.00;5.13;;;;;;;21.99;51.80;99203.22;5137438;27;20043;-63
2023/10/15 10:05:45;;;;;;;17.58;5.93;;;;;;;22.03;51.97;99198.16;5136712;27;20058;-63
2023/10/15 10:08:28;;;;;;;14.90;5.47;;;;;;;22.14;51.94;99194.53;5134603;27;20202;-63
2023/10/15 10:11:02;;;;;;;12.52;5.72;;;;;;;22.21;51.63;99187.88;5135316;27;20035;-63
2023/10/15 10:13:42;;;;;;;11.23;5.85;;;;;;;22.27;51.09;99194.16;5137526;27;20062;-63
2023/10/15 10:16:21;;;;;;;17.15;5.85;;;;;;;22.32;51.77;99183.44;5137942;27;20088;-63
2023/10/15 10:18:48;;;;;;;21.30;6.15;;;;;;;22.33;50.75;99168.88;5132611;27;20050;-63
2023/10/15 10:21:16;;;;;;;10.93;5.55;;;;;;;22.42;50.80;99171.94;5138806;27;20039;-62
2023/10/15 10:23:41;;;;;;;11.38;5.45;;;;;;;22.44;50.37;99164.41;5138742;27;20069;-63
2023/10/15 10:26:13;;;;;;;10.20;4.97;;;;;;;22.47;49.88;99159.31;5139124;27;20047;-63
2023/10/15 10:28:40;;;;;;;11.13;4.90;;;;;;;22.50;50.09;99150.72;5138893;27;20019;-63
2023/10/15 10:31:07;;;;;;;9.65;4.60;;;;;;;22.54;49.42;99148.31;5138801;27;20031;-63
2023/10/15 10:33:44;;;;;;;8.43;5.40;;;;;;;22.60;49.81;99145.44;5138881;27;20034;-63
2023/10/15 10:36:13;;;;;;;10.52;5.55;;;;;;;22.67;49.24;99133.63;5138660;28;20043;-63
2023/10/15 10:38:39;;;;;;;12.05;5.35;;;;;;;22.71;47.27;99129.34;5138254;27;20106;-63
2023/10/15 10:41:13;;;;;;;11.25;5.47;;;;;;;22.77;47.43;99134.53;5130110;27;20050;-63
2023/10/15 10:43:40;;;;;;;10.00;5.20;;;;;;;22.78;47.69;99122.66;5138001;28;20031;-63
2023/10/15 10:46:06;;;;;;;10.98;5.53;;;;;;;22.86;48.48;99116.81;5139090;27;20076;-63
2023/10/15 10:48:33;;;;;;;15.13;5.38;;;;;;;22.87;48.18;99114.94;5137859;28;20043;-63
2023/10/15 10:51:08;;;;;;;14.30;4.85;;;;;;;22.90;48.07;99117.97;5138949;27;20089;-63
2023/10/15 10:53:37;;;;;;;19.38;5.68;;;;;;;22.99;47.59;99112.09;5133936;28;20358;-63
2023/10/15 10:56:04;;;;;;;10.10;5.10;;;;;;;23.00;46.85;99111.81;5138865;27;20205;-63
2023/10/15 10:58:30;;;;;;;14.32;5.85;;;;;;;23.03;46.58;99111.31;5138879;28;20031;-63
2023/10/15 11:00:57;;;;;;;9.43;4.60;;;;;;;23.04;47.23;99106.72;5138038;28;20035;-63
2023/10/15 11:03:26;;;;;;;10.48;4.93;;;;;;;22.98;47.67;99097.78;5138802;27;20071;-63
2023/10/15 11:05:55;;;;;;;7.40;4.70;;;;;;;23.03;46.52;99103.22;5127423;27;20040;-63
2023/10/15 11:08:22;;;;;;;10.10;5.30;;;;;;;23.10;45.62;99093.00;5132509;27;20102;-63
2023/10/15 11:10:48;;;;;;;8.55;4.80;;;;;;;23.14;45.67;99093.28;5133581;27;20035;-64
2023/10/15 11:13:16;;;;;;;11.77;5.57;;;;;;;23.16;45.69;99083.03;5125645;27;20094;-63
2023/10/15 11:15:43;;;;;;;12.43;5.32;;;;;;;23.13;45.67;99072.75;5125429;27;20040;-63
2023/10/15 11:18:09;;;;;;;12.48;5.32;;;;;;;23.21;45.12;99072.28;5128417;27;20039;-63
2023/10/15 11:20:36;;;;;;;16.35;5.00;;;;;;;23.24;45.49;99071.75;5131494;27;20226;-63
2023/10/15 11:23:06;;;;;;;8.38;5.40;;;;;;;23.29;44.97;99066.38;5125108;27;20035;-63
2023/10/15 11:25:34;;;;;;;7.47;5.10;;;;;;;23.37;44.74;99068.59;5124779;27;20041;-63
2023/10/15 11:28:06;;;;;;;12.20;5.43;;;;;;;23.36;45.59;99064.25;5124897;27;20055;-63
2023/10/15 11:30:32;;;;;;;10.55;4.85;;;;;;;23.36;45.44;99063.44;5123953;27;20043;-64
2023/10/15 11:33:00;;;;;;;10.77;5.28;;;;;;;23.32;45.01;99065.88;5124904;27;20242;-63
2023/10/15 11:35:32;;;;;;;10.02;5.10;;;;;;;23.25;45.93;99058.00;5125249;27;20046;-63
2023/10/15 11:37:57;;;;;;;11.13;5.82;;;;;;;23.21;45.58;99058.78;5124560;27;20138;-63
2023/10/15 11:40:25;;;;;;;8.10;4.80;;;;;;;23.32;44.52;99054.25;5126316;27;20599;-63
2023/10/15 11:42:51;;;;;;;11.73;4.97;;;;;;;23.44;44.42;99057.56;5131020;27;20044;-63